Check out our new PWSWeather beta!
PWSweather.com
Personal Weather Stations
Station Observations
KOMOKA
Komoka Village, Komoka, ON N0L IRO

Komoka VillageKomoka, ON N0L IRO

Lat: 42.9542444, Lon: -81.4348861

Elevation: 805

Station Type: Davis Vantage Pro 2

www.komokaweather.com

High Low Average
Temperature 64.8°F18.2°C 42.3°F5.7°C 52.2°F11.2°C
Dew Point 53.8°F12.1°C 35.8°F2.1°C 44.4°F6.9°C
Winds 8.0 mph 12.9 kmh Calm Calm 4.0 mph E6.4 kmh E
Wind Gusts 27.0 mph43.5 kmh 1.0 mph1.6 kmh 12.0 mph19.3 kmh
Humidity 80% 65% 75%
Pressure 30.24 in1024.0 mb 29.93 in1013.5 mb -
Precipitation 0.43 in10.9 mm - -
Hour Temp Dew Point Humidity Winds Wind Gusts Pressure Precip Precip Rate Daily Precip Total
12:06 AM 43.3°F6.3°C 36.0°F2.2°C 75% 5.0 mph NE8.0 kmh NE 13.0 mph20.9 kmh 30.24 in1024.0 mb 0.00 in0.0 mm 0.00 in0.0 mm 0.00 in0.0 mm
12:13 AM 43.3°F6.3°C 36.0°F2.2°C 75% 5.0 mph E8.0 kmh E 16.0 mph25.7 kmh 30.22 in1023.4 mb 0.01 in0.3 mm 0.09 in2.3 mm 0.01 in0.3 mm
12:20 AM 43.2°F6.2°C 35.8°F2.1°C 75% 5.0 mph E8.0 kmh E 13.0 mph20.9 kmh 30.23 in1023.7 mb 0.01 in0.3 mm 0.00 in0.0 mm 0.01 in0.3 mm
12:27 AM 43.2°F6.2°C 35.8°F2.1°C 75% 5.0 mph ENE8.0 kmh ENE 17.0 mph27.4 kmh 30.22 in1023.4 mb 0.02 in0.5 mm 0.09 in2.3 mm 0.02 in0.5 mm
12:34 AM 43.2°F6.2°C 35.8°F2.1°C 75% 7.0 mph E11.3 kmh E 17.0 mph27.4 kmh 30.22 in1023.4 mb 0.02 in0.5 mm 0.00 in0.0 mm 0.02 in0.5 mm
12:41 AM 43.2°F6.2°C 35.8°F2.1°C 75% 8.0 mph E12.9 kmh E 19.0 mph30.6 kmh 30.21 in1023.0 mb 0.02 in0.5 mm 0.00 in0.0 mm 0.02 in0.5 mm
12:48 AM 43.2°F6.2°C 35.8°F2.1°C 75% 8.0 mph E12.9 kmh E 19.0 mph30.6 kmh 30.21 in1023.0 mb 0.02 in0.5 mm 0.00 in0.0 mm 0.02 in0.5 mm
12:55 AM 43.2°F6.2°C 35.8°F2.1°C 75% 8.0 mph ENE12.9 kmh ENE 23.0 mph37.0 kmh 30.20 in1022.7 mb 0.02 in0.5 mm 0.00 in0.0 mm 0.02 in0.5 mm
01:02 AM 43.2°F6.2°C 36.1°F2.3°C 76% 5.0 mph ENE8.0 kmh ENE 16.0 mph25.7 kmh 30.22 in1023.4 mb 0.02 in0.5 mm 0.00 in0.0 mm 0.02 in0.5 mm
01:09 AM 43.3°F6.3°C 36.0°F2.2°C 75% 5.0 mph ENE8.0 kmh ENE 20.0 mph32.2 kmh 30.21 in1023.0 mb 0.02 in0.5 mm 0.00 in0.0 mm 0.02 in0.5 mm
01:16 AM 43.3°F6.3°C 36.0°F2.2°C 75% 5.0 mph E8.0 kmh E 20.0 mph32.2 kmh 30.21 in1023.0 mb 0.02 in0.5 mm 0.00 in0.0 mm 0.03 in0.8 mm
01:23 AM 43.2°F6.2°C 36.1°F2.3°C 76% 5.0 mph E8.0 kmh E 15.0 mph24.1 kmh 30.21 in1023.0 mb 0.05 in1.3 mm 0.26 in6.6 mm 0.06 in1.5 mm
01:30 AM 43.0°F6.1°C 36.0°F2.2°C 76% 7.0 mph E11.3 kmh E 16.0 mph25.7 kmh 30.21 in1023.0 mb 0.05 in1.3 mm 0.00 in0.0 mm 0.06 in1.5 mm
01:37 AM 43.0°F6.1°C 36.1°F2.3°C 77% 5.0 mph E8.0 kmh E 12.0 mph19.3 kmh 30.21 in1023.0 mb 0.06 in1.5 mm 0.09 in2.3 mm 0.08 in2.0 mm
01:44 AM 42.8°F6.0°C 36.1°F2.3°C 77% 5.0 mph E8.0 kmh E 15.0 mph24.1 kmh 30.20 in1022.7 mb 0.06 in1.5 mm 0.00 in0.0 mm 0.09 in2.3 mm
01:51 AM 42.6°F5.9°C 36.0°F2.2°C 77% 7.0 mph E11.3 kmh E 15.0 mph24.1 kmh 30.20 in1022.7 mb 0.08 in2.0 mm 0.17 in4.3 mm 0.10 in2.5 mm
01:58 AM 42.6°F5.9°C 36.0°F2.2°C 77% 7.0 mph E11.3 kmh E 17.0 mph27.4 kmh 30.20 in1022.7 mb 0.09 in2.3 mm 0.09 in2.3 mm 0.11 in2.8 mm
02:05 AM 42.8°F6.0°C 36.1°F2.3°C 77% 7.0 mph E11.3 kmh E 15.0 mph24.1 kmh 30.20 in1022.7 mb 0.09 in2.3 mm 0.00 in0.0 mm 0.11 in2.8 mm
02:12 AM 43.0°F6.1°C 36.7°F2.6°C 78% 7.0 mph ENE11.3 kmh ENE 15.0 mph24.1 kmh 30.20 in1022.7 mb 0.09 in2.3 mm 0.00 in0.0 mm 0.11 in2.8 mm
02:19 AM 43.0°F6.1°C 36.7°F2.6°C 78% 5.0 mph E8.0 kmh E 16.0 mph25.7 kmh 30.21 in1023.0 mb 0.07 in1.8 mm 0.00 in0.0 mm 0.12 in3.0 mm
02:36 AM 42.8°F6.0°C 36.1°F2.3°C 77% 8.0 mph E12.9 kmh E 19.0 mph30.6 kmh 30.17 in1021.7 mb 0.06 in1.5 mm 0.00 in0.0 mm 0.15 in3.8 mm
02:41 AM 42.6°F5.9°C 36.3°F2.4°C 78% 8.0 mph ENE12.9 kmh ENE 15.0 mph24.1 kmh 30.18 in1022.0 mb 0.06 in1.5 mm 0.00 in0.0 mm 0.16 in4.1 mm
02:48 AM 42.4°F5.8°C 36.1°F2.3°C 78% 7.0 mph E11.3 kmh E 16.0 mph25.7 kmh 30.17 in1021.7 mb 0.06 in1.5 mm 0.00 in0.0 mm 0.17 in4.3 mm
02:55 AM 42.4°F5.8°C 36.0°F2.2°C 78% 7.0 mph E11.3 kmh E 23.0 mph37.0 kmh 30.17 in1021.7 mb 0.06 in1.5 mm 0.00 in0.0 mm 0.17 in4.3 mm
03:02 AM 42.3°F5.7°C 36.0°F2.2°C 78% 5.0 mph ENE8.0 kmh ENE 17.0 mph27.4 kmh 30.17 in1021.7 mb 0.06 in1.5 mm 0.00 in0.0 mm 0.17 in4.3 mm
03:09 AM 42.3°F5.7°C 35.8°F2.1°C 78% 8.0 mph ENE12.9 kmh ENE 27.0 mph43.5 kmh 30.16 in1021.3 mb 0.07 in1.8 mm 0.09 in2.3 mm 0.18 in4.6 mm
03:16 AM 42.3°F5.7°C 35.8°F2.1°C 78% 7.0 mph E11.3 kmh E 23.0 mph37.0 kmh 30.16 in1021.3 mb 0.06 in1.5 mm 0.00 in0.0 mm 0.18 in4.6 mm
03:23 AM 42.3°F5.7°C 35.8°F2.1°C 78% 5.0 mph E8.0 kmh E 16.0 mph25.7 kmh 30.16 in1021.3 mb 0.06 in1.5 mm 0.00 in0.0 mm 0.19 in4.8 mm
03:30 AM 42.3°F5.7°C 35.8°F2.1°C 78% 5.0 mph E8.0 kmh E 20.0 mph32.2 kmh 30.15 in1021.0 mb 0.06 in1.5 mm 0.00 in0.0 mm 0.20 in5.1 mm
03:37 AM 42.3°F5.7°C 36.0°F2.2°C 78% 7.0 mph E11.3 kmh E 20.0 mph32.2 kmh 30.15 in1021.0 mb 0.06 in1.5 mm 0.00 in0.0 mm 0.20 in5.1 mm
03:44 AM 42.3°F5.7°C 36.3°F2.4°C 79% 7.0 mph E11.3 kmh E 21.0 mph33.8 kmh 30.14 in1020.7 mb 0.06 in1.5 mm 0.00 in0.0 mm 0.23 in5.8 mm
03:51 AM 42.4°F5.8°C 36.3°F2.4°C 79% 8.0 mph ENE12.9 kmh ENE 17.0 mph27.4 kmh 30.14 in1020.7 mb 0.07 in1.8 mm 0.09 in2.3 mm 0.24 in6.1 mm
03:58 AM 42.4°F5.8°C 36.5°F2.5°C 79% 7.0 mph ENE11.3 kmh ENE 17.0 mph27.4 kmh 30.14 in1020.7 mb 0.08 in2.0 mm 0.09 in2.3 mm 0.26 in6.6 mm
04:05 AM 42.6°F5.9°C 36.5°F2.5°C 79% 5.0 mph ENE8.0 kmh ENE 15.0 mph24.1 kmh 30.13 in1020.3 mb 0.11 in2.8 mm 0.03 in0.8 mm 0.29 in7.4 mm
04:12 AM 42.6°F5.9°C 37.0°F2.8°C 80% 5.0 mph ENE8.0 kmh ENE 12.0 mph19.3 kmh 30.13 in1020.3 mb 0.14 in3.6 mm 0.26 in6.6 mm 0.32 in8.1 mm
04:19 AM 42.6°F5.9°C 37.0°F2.8°C 80% 5.0 mph ENE8.0 kmh ENE 12.0 mph19.3 kmh 30.12 in1020.0 mb 0.14 in3.6 mm 0.00 in0.0 mm 0.33 in8.4 mm
04:26 AM 42.8°F6.0°C 37.0°F2.8°C 80% 5.0 mph ENE8.0 kmh ENE 13.0 mph20.9 kmh 30.12 in1020.0 mb 0.13 in3.3 mm 0.00 in0.0 mm 0.33 in8.4 mm
04:33 AM 42.8°F6.0°C 37.0°F2.8°C 80% 7.0 mph ENE11.3 kmh ENE 15.0 mph24.1 kmh 30.12 in1020.0 mb 0.13 in3.3 mm 0.00 in0.0 mm 0.33 in8.4 mm
04:40 AM 43.0°F6.1°C 37.2°F2.9°C 80% 5.0 mph ENE8.0 kmh ENE 15.0 mph24.1 kmh 30.12 in1020.0 mb 0.12 in3.0 mm 0.00 in0.0 mm 0.33 in8.4 mm
04:47 AM 43.0°F6.1°C 37.2°F2.9°C 80% 7.0 mph E11.3 kmh E 21.0 mph33.8 kmh 30.11 in1019.6 mb 0.09 in2.3 mm 0.00 in0.0 mm 0.33 in8.4 mm
04:54 AM 43.2°F6.2°C 37.4°F3.0°C 80% 7.0 mph ENE11.3 kmh ENE 15.0 mph24.1 kmh 30.11 in1019.6 mb 0.08 in2.0 mm 0.00 in0.0 mm 0.33 in8.4 mm
05:01 AM 43.2°F6.2°C 37.4°F3.0°C 80% 7.0 mph E11.3 kmh E 17.0 mph27.4 kmh 30.11 in1019.6 mb 0.06 in1.5 mm 0.00 in0.0 mm 0.33 in8.4 mm
05:08 AM 43.2°F6.2°C 37.4°F3.0°C 80% 7.0 mph E11.3 kmh E 16.0 mph25.7 kmh 30.10 in1019.3 mb 0.03 in0.8 mm 0.00 in0.0 mm 0.33 in8.4 mm
05:15 AM 43.2°F6.2°C 37.4°F3.0°C 80% 7.0 mph E11.3 kmh E 12.0 mph19.3 kmh 30.10 in1019.3 mb 0.01 in0.3 mm 0.00 in0.0 mm 0.33 in8.4 mm
05:22 AM 43.3°F6.3°C 37.6°F3.1°C 80% 7.0 mph E11.3 kmh E 17.0 mph27.4 kmh 30.10 in1019.3 mb 0.00 in0.0 mm 0.00 in0.0 mm 0.33 in8.4 mm
05:29 AM 43.3°F6.3°C 37.6°F3.1°C 80% 8.0 mph E12.9 kmh E 17.0 mph27.4 kmh 30.10 in1019.3 mb 0.00 in0.0 mm 0.00 in0.0 mm 0.33 in8.4 mm
05:36 AM 43.3°F6.3°C 37.6°F3.1°C 80% 7.0 mph E11.3 kmh E 15.0 mph24.1 kmh 30.10 in1019.3 mb 0.00 in0.0 mm 0.00 in0.0 mm 0.33 in8.4 mm
05:43 AM 43.5°F6.4°C 37.4°F3.0°C 79% 5.0 mph E8.0 kmh E 16.0 mph25.7 kmh 30.11 in1019.6 mb 0.00 in0.0 mm 0.00 in0.0 mm 0.33 in8.4 mm
05:50 AM 43.5°F6.4°C 37.6°F3.1°C 79% 7.0 mph E11.3 kmh E 17.0 mph27.4 kmh 30.10 in1019.3 mb 0.00 in0.0 mm 0.00 in0.0 mm 0.33 in8.4 mm
05:57 AM 43.7°F6.5°C 37.6°F3.1°C 79% 5.0 mph E8.0 kmh E 13.0 mph20.9 kmh 30.10 in1019.3 mb 0.00 in0.0 mm 0.00 in0.0 mm 0.33 in8.4 mm
06:04 AM 44.1°F6.7°C 37.9°F3.3°C 79% 5.0 mph E8.0 kmh E 16.0 mph25.7 kmh 30.10 in1019.3 mb 0.00 in0.0 mm 0.00 in0.0 mm 0.33 in8.4 mm
06:11 AM 44.1°F6.7°C 37.6°F3.1°C 78% 5.0 mph E8.0 kmh E 16.0 mph25.7 kmh 30.10 in1019.3 mb 0.00 in0.0 mm 0.00 in0.0 mm 0.33 in8.4 mm
06:18 AM 44.2°F6.8°C 37.8°F3.2°C 78% 7.0 mph E11.3 kmh E 16.0 mph25.7 kmh 30.10 in1019.3 mb 0.00 in0.0 mm 0.00 in0.0 mm 0.33 in8.4 mm
06:25 AM 44.2°F6.8°C 37.9°F3.3°C 78% 7.0 mph E11.3 kmh E 15.0 mph24.1 kmh 30.10 in1019.3 mb 0.00 in0.0 mm 0.00 in0.0 mm 0.33 in8.4 mm
06:32 AM 44.4°F6.9°C 37.9°F3.3°C 78% 7.0 mph ENE11.3 kmh ENE 15.0 mph24.1 kmh 30.10 in1019.3 mb 0.00 in0.0 mm 0.00 in0.0 mm 0.33 in8.4 mm
06:39 AM 44.4°F6.9°C 38.1°F3.4°C 78% 7.0 mph ENE11.3 kmh ENE 15.0 mph24.1 kmh 30.10 in1019.3 mb 0.00 in0.0 mm 0.00 in0.0 mm 0.33 in8.4 mm
06:46 AM 44.6°F7.0°C 37.8°F3.2°C 77% 5.0 mph E8.0 kmh E 12.0 mph19.3 kmh 30.10 in1019.3 mb 0.00 in0.0 mm 0.00 in0.0 mm 0.33 in8.4 mm
06:53 AM 44.6°F7.0°C 37.8°F3.2°C 77% 4.0 mph E6.4 kmh E 13.0 mph20.9 kmh 30.10 in1019.3 mb 0.00 in0.0 mm 0.00 in0.0 mm 0.33 in8.4 mm
07:00 AM 44.4°F6.9°C 37.4°F3.0°C 76% 5.0 mph E8.0 kmh E 15.0 mph24.1 kmh 30.10 in1019.3 mb 0.00 in0.0 mm 0.00 in0.0 mm 0.33 in8.4 mm
07:07 AM 44.6°F7.0°C 37.6°F3.1°C 76% 7.0 mph E11.3 kmh E 15.0 mph24.1 kmh 30.10 in1019.3 mb 0.00 in0.0 mm 0.00 in0.0 mm 0.33 in8.4 mm
07:14 AM 44.8°F7.1°C 37.6°F3.1°C 76% 7.0 mph E11.3 kmh E 15.0 mph24.1 kmh 30.09 in1019.0 mb 0.00 in0.0 mm 0.00 in0.0 mm 0.33 in8.4 mm
07:21 AM 45.0°F7.2°C 37.8°F3.2°C 76% 5.0 mph E8.0 kmh E 19.0 mph30.6 kmh 30.09 in1019.0 mb 0.00 in0.0 mm 0.00 in0.0 mm 0.33 in8.4 mm
07:28 AM 45.1°F7.3°C 38.1°F3.4°C 76% 5.0 mph E8.0 kmh E 13.0 mph20.9 kmh 30.09 in1019.0 mb 0.00 in0.0 mm 0.00 in0.0 mm 0.33 in8.4 mm
07:35 AM 45.3°F7.4°C 38.3°F3.5°C 76% 5.0 mph E8.0 kmh E 13.0 mph20.9 kmh 30.09 in1019.0 mb 0.01 in0.3 mm 0.09 in2.3 mm 0.34 in8.6 mm
07:42 AM 45.3°F7.4°C 38.3°F3.5°C 76% 5.0 mph E8.0 kmh E 15.0 mph24.1 kmh 30.08 in1018.6 mb 0.01 in0.3 mm 0.00 in0.0 mm 0.34 in8.6 mm
07:49 AM 45.3°F7.4°C 38.3°F3.5°C 76% 5.0 mph ENE8.0 kmh ENE 16.0 mph25.7 kmh 30.09 in1019.0 mb 0.01 in0.3 mm 0.00 in0.0 mm 0.34 in8.6 mm
07:56 AM 45.3°F7.4°C 38.3°F3.5°C 76% 5.0 mph E8.0 kmh E 16.0 mph25.7 kmh 30.08 in1018.6 mb 0.01 in0.3 mm 0.00 in0.0 mm 0.34 in8.6 mm
08:03 AM 45.7°F7.6°C 38.5°F3.6°C 76% 5.0 mph E8.0 kmh E 15.0 mph24.1 kmh 30.07 in1018.3 mb 0.01 in0.3 mm 0.00 in0.0 mm 0.34 in8.6 mm
08:10 AM 46.0°F7.8°C 38.5°F3.6°C 75% 5.0 mph E8.0 kmh E 16.0 mph25.7 kmh 30.07 in1018.3 mb 0.01 in0.3 mm 0.00 in0.0 mm 0.34 in8.6 mm
08:17 AM 46.0°F7.8°C 38.5°F3.6°C 75% 7.0 mph E11.3 kmh E 16.0 mph25.7 kmh 30.07 in1018.3 mb 0.01 in0.3 mm 0.00 in0.0 mm 0.34 in8.6 mm
08:24 AM 46.6°F8.1°C 39.0°F3.9°C 75% 5.0 mph E8.0 kmh E 13.0 mph20.9 kmh 30.06 in1017.9 mb 0.01 in0.3 mm 0.00 in0.0 mm 0.34 in8.6 mm
08:31 AM 46.9°F8.3°C 39.6°F4.2°C 75% 5.0 mph NE8.0 kmh NE 17.0 mph27.4 kmh 30.05 in1017.6 mb 0.01 in0.3 mm 0.00 in0.0 mm 0.34 in8.6 mm
08:38 AM 47.5°F8.6°C 39.9°F4.4°C 75% 5.0 mph NNE8.0 kmh NNE 17.0 mph27.4 kmh 30.05 in1017.6 mb 0.00 in0.0 mm 0.00 in0.0 mm 0.34 in8.6 mm
08:45 AM 47.7°F8.7°C 39.7°F4.3°C 74% 5.0 mph NE8.0 kmh NE 17.0 mph27.4 kmh 30.05 in1017.6 mb 0.00 in0.0 mm 0.00 in0.0 mm 0.34 in8.6 mm
08:52 AM 47.8°F8.8°C 39.9°F4.4°C 74% 5.0 mph E8.0 kmh E 15.0 mph24.1 kmh 30.05 in1017.6 mb 0.00 in0.0 mm 0.00 in0.0 mm 0.34 in8.6 mm
08:59 AM 48.2°F9.0°C 40.3°F4.6°C 74% 7.0 mph E11.3 kmh E 16.0 mph25.7 kmh 30.04 in1017.3 mb 0.00 in0.0 mm 0.00 in0.0 mm 0.34 in8.6 mm
09:06 AM 48.0°F8.9°C 40.3°F4.6°C 74% 8.0 mph E12.9 kmh E 24.0 mph38.6 kmh 30.04 in1017.3 mb 0.00 in0.0 mm 0.00 in0.0 mm 0.34 in8.6 mm
09:13 AM 48.7°F9.3°C 40.8°F4.9°C 74% 7.0 mph ESE11.3 kmh ESE 16.0 mph25.7 kmh 30.04 in1017.3 mb 0.00 in0.0 mm 0.00 in0.0 mm 0.34 in8.6 mm
09:20 AM 48.9°F9.4°C 41.0°F5.0°C 74% 5.0 mph NNE8.0 kmh NNE 16.0 mph25.7 kmh 30.03 in1016.9 mb 0.00 in0.0 mm 0.00 in0.0 mm 0.34 in8.6 mm
09:27 AM 48.9°F9.4°C 41.0°F5.0°C 74% 5.0 mph N8.0 kmh N 16.0 mph25.7 kmh 30.02 in1016.6 mb 0.00 in0.0 mm 0.00 in0.0 mm 0.34 in8.6 mm
09:34 AM 49.1°F9.5°C 41.2°F5.1°C 74% 5.0 mph N8.0 kmh N 13.0 mph20.9 kmh 30.03 in1016.9 mb 0.00 in0.0 mm 0.00 in0.0 mm 0.34 in8.6 mm
09:41 AM 49.3°F9.6°C 41.2°F5.1°C 74% 5.0 mph N8.0 kmh N 13.0 mph20.9 kmh 30.02 in1016.6 mb 0.00 in0.0 mm 0.00 in0.0 mm 0.34 in8.6 mm
09:48 AM 49.5°F9.7°C 41.5°F5.3°C 74% 4.0 mph N6.4 kmh N 13.0 mph20.9 kmh 30.02 in1016.6 mb 0.00 in0.0 mm 0.00 in0.0 mm 0.34 in8.6 mm
09:55 AM 49.8°F9.9°C 41.5°F5.3°C 73% 4.0 mph N6.4 kmh N 13.0 mph20.9 kmh 30.01 in1016.3 mb 0.00 in0.0 mm 0.00 in0.0 mm 0.34 in8.6 mm
10:02 AM 50.4°F10.2°C 41.9°F5.5°C 73% 5.0 mph N8.0 kmh N 13.0 mph20.9 kmh 30.02 in1016.6 mb 0.00 in0.0 mm 0.00 in0.0 mm 0.34 in8.6 mm
10:09 AM 50.4°F10.2°C 42.1°F5.6°C 73% 5.0 mph N8.0 kmh N 13.0 mph20.9 kmh 30.02 in1016.6 mb 0.00 in0.0 mm 0.00 in0.0 mm 0.34 in8.6 mm
10:16 AM 51.3°F10.7°C 42.8°F6.0°C 73% 4.0 mph N6.4 kmh N 9.0 mph14.5 kmh 30.01 in1016.3 mb 0.00 in0.0 mm 0.00 in0.0 mm 0.34 in8.6 mm
10:23 AM 52.2°F11.2°C 43.3°F6.3°C 72% 5.0 mph N8.0 kmh N 12.0 mph19.3 kmh 30.00 in1015.9 mb 0.00 in0.0 mm 0.00 in0.0 mm 0.34 in8.6 mm
10:30 AM 52.7°F11.5°C 43.9°F6.6°C 72% 5.0 mph N8.0 kmh N 11.0 mph17.7 kmh 30.00 in1015.9 mb 0.00 in0.0 mm 0.00 in0.0 mm 0.34 in8.6 mm
10:37 AM 54.0°F12.2°C 44.8°F7.1°C 71% 4.0 mph N6.4 kmh N 13.0 mph20.9 kmh 29.99 in1015.6 mb 0.00 in0.0 mm 0.00 in0.0 mm 0.34 in8.6 mm
10:44 AM 55.4°F13.0°C 46.2°F7.9°C 71% 5.0 mph N8.0 kmh N 16.0 mph25.7 kmh 29.99 in1015.6 mb 0.00 in0.0 mm 0.00 in0.0 mm 0.34 in8.6 mm
10:51 AM 56.7°F13.7°C 46.6°F8.1°C 69% 4.0 mph N6.4 kmh N 16.0 mph25.7 kmh 29.98 in1015.2 mb 0.00 in0.0 mm 0.00 in0.0 mm 0.34 in8.6 mm
10:58 AM 57.0°F13.9°C 46.9°F8.3°C 69% 5.0 mph N8.0 kmh N 13.0 mph20.9 kmh 29.98 in1015.2 mb 0.00 in0.0 mm 0.00 in0.0 mm 0.34 in8.6 mm
11:05 AM 57.4°F14.1°C 47.3°F8.5°C 69% 4.0 mph N6.4 kmh N 13.0 mph20.9 kmh 29.98 in1015.2 mb 0.00 in0.0 mm 0.00 in0.0 mm 0.34 in8.6 mm
11:12 AM 57.6°F14.2°C 47.5°F8.6°C 69% 4.0 mph N6.4 kmh N 12.0 mph19.3 kmh 29.97 in1014.9 mb 0.00 in0.0 mm 0.00 in0.0 mm 0.34 in8.6 mm
11:19 AM 58.5°F14.7°C 48.4°F9.1°C 69% 4.0 mph NE6.4 kmh NE 8.0 mph12.9 kmh 29.96 in1014.6 mb 0.00 in0.0 mm 0.00 in0.0 mm 0.34 in8.6 mm
11:26 AM 58.8°F14.9°C 48.7°F9.3°C 69% 4.0 mph E6.4 kmh E 11.0 mph17.7 kmh 29.96 in1014.6 mb 0.00 in0.0 mm 0.00 in0.0 mm 0.34 in8.6 mm
11:33 AM 59.4°F15.2°C 48.7°F9.3°C 68% 4.0 mph SE6.4 kmh SE 12.0 mph19.3 kmh 29.95 in1014.2 mb 0.00 in0.0 mm 0.00 in0.0 mm 0.34 in8.6 mm
11:40 AM 59.7°F15.4°C 49.6°F9.8°C 69% 4.0 mph E6.4 kmh E 12.0 mph19.3 kmh 29.95 in1014.2 mb 0.00 in0.0 mm 0.00 in0.0 mm 0.34 in8.6 mm
11:47 AM 60.8°F16.0°C 50.5°F10.3°C 69% 4.0 mph NE6.4 kmh NE 8.0 mph12.9 kmh 29.95 in1014.2 mb 0.00 in0.0 mm 0.00 in0.0 mm 0.34 in8.6 mm
11:54 AM 61.5°F16.4°C 50.5°F10.3°C 67% 4.0 mph E6.4 kmh E 8.0 mph12.9 kmh 29.95 in1014.2 mb 0.00 in0.0 mm 0.00 in0.0 mm 0.34 in8.6 mm
12:01 PM 61.9°F16.6°C 50.9°F10.5°C 67% 4.0 mph SE6.4 kmh SE 8.0 mph12.9 kmh 29.95 in1014.2 mb 0.00 in0.0 mm 0.00 in0.0 mm 0.34 in8.6 mm
12:08 PM 62.4°F16.9°C 51.3°F10.7°C 67% 5.0 mph SE8.0 kmh SE 19.0 mph30.6 kmh 29.94 in1013.9 mb 0.00 in0.0 mm 0.00 in0.0 mm 0.34 in8.6 mm
12:15 PM 63.9°F17.7°C 52.7°F11.5°C 67% 7.0 mph E11.3 kmh E 19.0 mph30.6 kmh 29.93 in1013.5 mb 0.00 in0.0 mm 0.00 in0.0 mm 0.34 in8.6 mm
12:22 PM 64.8°F18.2°C 52.7°F11.5°C 65% 5.0 mph SSE8.0 kmh SSE 19.0 mph30.6 kmh 29.94 in1013.9 mb 0.00 in0.0 mm 0.00 in0.0 mm 0.34 in8.6 mm
12:29 PM 64.6°F18.1°C 52.9°F11.6°C 66% 5.0 mph S8.0 kmh S 16.0 mph25.7 kmh 29.93 in1013.5 mb 0.00 in0.0 mm 0.00 in0.0 mm 0.34 in8.6 mm
12:36 PM 64.2°F17.9°C 52.5°F11.4°C 66% 5.0 mph NE8.0 kmh NE 15.0 mph24.1 kmh 29.94 in1013.9 mb 0.00 in0.0 mm 0.00 in0.0 mm 0.34 in8.6 mm
12:43 PM 64.0°F17.8°C 52.3°F11.3°C 66% 5.0 mph SE8.0 kmh SE 15.0 mph24.1 kmh 29.94 in1013.9 mb 0.00 in0.0 mm 0.00 in0.0 mm 0.34 in8.6 mm
12:50 PM 63.7°F17.6°C 52.5°F11.4°C 67% 5.0 mph N8.0 kmh N 12.0 mph19.3 kmh 29.94 in1013.9 mb 0.00 in0.0 mm 0.00 in0.0 mm 0.34 in8.6 mm
12:57 PM 63.5°F17.5°C 52.0°F11.1°C 66% 5.0 mph N8.0 kmh N 13.0 mph20.9 kmh 29.94 in1013.9 mb 0.00 in0.0 mm 0.00 in0.0 mm 0.34 in8.6 mm
01:04 PM 63.3°F17.4°C 51.8°F11.0°C 66% 5.0 mph SSW8.0 kmh SSW 12.0 mph19.3 kmh 29.95 in1014.2 mb 0.00 in0.0 mm 0.00 in0.0 mm 0.34 in8.6 mm
01:11 PM 63.3°F17.4°C 52.2°F11.2°C 67% 7.0 mph S11.3 kmh S 17.0 mph27.4 kmh 29.95 in1014.2 mb 0.00 in0.0 mm 0.00 in0.0 mm 0.34 in8.6 mm
01:18 PM 63.1°F17.3°C 52.3°F11.3°C 68% 5.0 mph S8.0 kmh S 13.0 mph20.9 kmh 29.95 in1014.2 mb 0.00 in0.0 mm 0.00 in0.0 mm 0.34 in8.6 mm
01:25 PM 62.4°F16.9°C 52.2°F11.2°C 69% 4.0 mph S6.4 kmh S 11.0 mph17.7 kmh 29.95 in1014.2 mb 0.00 in0.0 mm 0.00 in0.0 mm 0.34 in8.6 mm
01:32 PM 62.1°F16.7°C 51.8°F11.0°C 69% 5.0 mph S8.0 kmh S 9.0 mph14.5 kmh 29.95 in1014.2 mb 0.00 in0.0 mm 0.00 in0.0 mm 0.34 in8.6 mm
01:39 PM 61.9°F16.6°C 52.0°F11.1°C 70% 4.0 mph S6.4 kmh S 9.0 mph14.5 kmh 29.95 in1014.2 mb 0.00 in0.0 mm 0.00 in0.0 mm 0.34 in8.6 mm
01:46 PM 62.1°F16.7°C 52.2°F11.2°C 70% 3.0 mph S4.8 kmh S 7.0 mph11.3 kmh 29.95 in1014.2 mb 0.00 in0.0 mm 0.00 in0.0 mm 0.34 in8.6 mm
01:53 PM 62.1°F16.7°C 51.8°F11.0°C 69% 4.0 mph S6.4 kmh S 8.0 mph12.9 kmh 29.95 in1014.2 mb 0.00 in0.0 mm 0.00 in0.0 mm 0.34 in8.6 mm
02:00 PM 62.1°F16.7°C 51.8°F11.0°C 69% 3.0 mph S4.8 kmh S 8.0 mph12.9 kmh 29.95 in1014.2 mb 0.00 in0.0 mm 0.00 in0.0 mm 0.34 in8.6 mm
02:07 PM 62.1°F16.7°C 52.2°F11.2°C 70% 3.0 mph S4.8 kmh S 8.0 mph12.9 kmh 29.95 in1014.2 mb 0.00 in0.0 mm 0.00 in0.0 mm 0.34 in8.6 mm
02:14 PM 62.6°F17.0°C 52.7°F11.5°C 70% 4.0 mph S6.4 kmh S 13.0 mph20.9 kmh 29.95 in1014.2 mb 0.00 in0.0 mm 0.00 in0.0 mm 0.34 in8.6 mm
02:21 PM 62.2°F16.8°C 52.7°F11.5°C 71% 3.0 mph S4.8 kmh S 7.0 mph11.3 kmh 29.95 in1014.2 mb 0.00 in0.0 mm 0.00 in0.0 mm 0.34 in8.6 mm
02:28 PM 62.2°F16.8°C 52.7°F11.5°C 71% 3.0 mph S4.8 kmh S 7.0 mph11.3 kmh 29.94 in1013.9 mb 0.00 in0.0 mm 0.00 in0.0 mm 0.34 in8.6 mm
02:35 PM 62.2°F16.8°C 53.1°F11.7°C 72% 3.0 mph S4.8 kmh S 7.0 mph11.3 kmh 29.94 in1013.9 mb 0.00 in0.0 mm 0.00 in0.0 mm 0.34 in8.6 mm
02:42 PM 62.1°F16.7°C 53.2°F11.8°C 73% 3.0 mph S4.8 kmh S 8.0 mph12.9 kmh 29.94 in1013.9 mb 0.00 in0.0 mm 0.00 in0.0 mm 0.34 in8.6 mm
02:49 PM 61.9°F16.6°C 53.4°F11.9°C 74% 3.0 mph SW4.8 kmh SW 5.0 mph8.0 kmh 29.95 in1014.2 mb 0.00 in0.0 mm 0.00 in0.0 mm 0.34 in8.6 mm
02:58 PM 61.7°F16.5°C 53.8°F12.1°C 75% 3.0 mph SW4.8 kmh SW 8.0 mph12.9 kmh 29.95 in1014.2 mb 0.00 in0.0 mm 0.00 in0.0 mm 0.34 in8.6 mm
03:08 PM 61.3°F16.3°C 53.4°F11.9°C 75% 3.0 mph N4.8 kmh N 8.0 mph12.9 kmh 29.95 in1014.2 mb 0.02 in0.5 mm 0.02 in0.5 mm 0.36 in9.1 mm
03:15 PM 61.3°F16.3°C 53.2°F11.8°C 75% 3.0 mph N4.8 kmh N 7.0 mph11.3 kmh 29.94 in1013.9 mb 0.02 in0.5 mm 0.00 in0.0 mm 0.36 in9.1 mm
03:22 PM 61.3°F16.3°C 53.2°F11.8°C 75% 3.0 mph N4.8 kmh N 8.0 mph12.9 kmh 29.95 in1014.2 mb 0.02 in0.5 mm 0.00 in0.0 mm 0.36 in9.1 mm
03:29 PM 61.3°F16.3°C 53.2°F11.8°C 75% 3.0 mph N4.8 kmh N 8.0 mph12.9 kmh 29.94 in1013.9 mb 0.03 in0.8 mm 0.09 in2.3 mm 0.37 in9.4 mm
03:36 PM 61.3°F16.3°C 53.6°F12.0°C 76% 3.0 mph N4.8 kmh N 7.0 mph11.3 kmh 29.93 in1013.5 mb 0.03 in0.8 mm 0.00 in0.0 mm 0.37 in9.4 mm
03:43 PM 61.2°F16.2°C 53.6°F12.0°C 76% 3.0 mph N4.8 kmh N 8.0 mph12.9 kmh 29.93 in1013.5 mb 0.04 in1.0 mm 0.09 in2.3 mm 0.38 in9.7 mm
03:50 PM 61.3°F16.3°C 53.6°F12.0°C 76% 4.0 mph N6.4 kmh N 8.0 mph12.9 kmh 29.93 in1013.5 mb 0.02 in0.5 mm 0.00 in0.0 mm 0.38 in9.7 mm
03:57 PM 61.2°F16.2°C 53.6°F12.0°C 76% 4.0 mph N6.4 kmh N 8.0 mph12.9 kmh 29.93 in1013.5 mb 0.03 in0.8 mm 0.09 in2.3 mm 0.39 in9.9 mm
04:04 PM 61.3°F16.3°C 53.6°F12.0°C 76% 4.0 mph N6.4 kmh N 12.0 mph19.3 kmh 29.93 in1013.5 mb 0.02 in0.5 mm 0.00 in0.0 mm 0.39 in9.9 mm
04:11 PM 61.5°F16.4°C 53.8°F12.1°C 76% 4.0 mph N6.4 kmh N 12.0 mph19.3 kmh 29.93 in1013.5 mb 0.04 in1.0 mm 0.17 in4.3 mm 0.40 in10.2 mm
04:18 PM 61.5°F16.4°C 53.6°F12.0°C 75% 4.0 mph N6.4 kmh N 9.0 mph14.5 kmh 29.93 in1013.5 mb 0.04 in1.0 mm 0.00 in0.0 mm 0.40 in10.2 mm
04:25 PM 61.9°F16.6°C 53.8°F12.1°C 75% 5.0 mph N8.0 kmh N 15.0 mph24.1 kmh 29.93 in1013.5 mb 0.04 in1.0 mm 0.00 in0.0 mm 0.40 in10.2 mm
04:32 PM 61.5°F16.4°C 53.6°F12.0°C 75% 5.0 mph N8.0 kmh N 13.0 mph20.9 kmh 29.95 in1014.2 mb 0.04 in1.0 mm 0.00 in0.0 mm 0.41 in10.4 mm
04:39 PM 61.5°F16.4°C 53.6°F12.0°C 75% 5.0 mph N8.0 kmh N 13.0 mph20.9 kmh 29.95 in1014.2 mb 0.04 in1.0 mm 0.00 in0.0 mm 0.41 in10.4 mm
04:46 PM 61.5°F16.4°C 53.6°F12.0°C 75% 7.0 mph N11.3 kmh N 15.0 mph24.1 kmh 29.95 in1014.2 mb 0.04 in1.0 mm 0.00 in0.0 mm 0.42 in10.7 mm
04:53 PM 61.5°F16.4°C 53.6°F12.0°C 75% 5.0 mph N8.0 kmh N 15.0 mph24.1 kmh 29.95 in1014.2 mb 0.05 in1.3 mm 0.09 in2.3 mm 0.43 in10.9 mm
05:00 PM 61.7°F16.5°C 53.8°F12.1°C 75% 4.0 mph N6.4 kmh N 12.0 mph19.3 kmh 29.95 in1014.2 mb 0.04 in1.0 mm 0.00 in0.0 mm 0.43 in10.9 mm
05:07 PM 61.7°F16.5°C 53.8°F12.1°C 75% 4.0 mph N6.4 kmh N 12.0 mph19.3 kmh 29.95 in1014.2 mb 0.02 in0.5 mm 0.00 in0.0 mm 0.43 in10.9 mm
05:14 PM 61.7°F16.5°C 53.8°F12.1°C 75% 4.0 mph N6.4 kmh N 12.0 mph19.3 kmh 29.95 in1014.2 mb 0.02 in0.5 mm 0.00 in0.0 mm 0.43 in10.9 mm
05:21 PM 61.5°F16.4°C 53.6°F12.0°C 75% 5.0 mph NNW8.0 kmh NNW 9.0 mph14.5 kmh 29.95 in1014.2 mb 0.02 in0.5 mm 0.00 in0.0 mm 0.43 in10.9 mm
05:28 PM 61.5°F16.4°C 53.6°F12.0°C 75% 5.0 mph NNW8.0 kmh NNW 9.0 mph14.5 kmh 29.96 in1014.6 mb 0.02 in0.5 mm 0.00 in0.0 mm 0.43 in10.9 mm
05:35 PM 61.5°F16.4°C 53.6°F12.0°C 75% 4.0 mph N6.4 kmh N 12.0 mph19.3 kmh 29.96 in1014.6 mb 0.02 in0.5 mm 0.00 in0.0 mm 0.43 in10.9 mm
05:42 PM 61.5°F16.4°C 53.1°F11.7°C 74% 4.0 mph NNW6.4 kmh NNW 9.0 mph14.5 kmh 29.96 in1014.6 mb 0.01 in0.3 mm 0.00 in0.0 mm 0.43 in10.9 mm
05:49 PM 61.5°F16.4°C 53.2°F11.8°C 74% 4.0 mph NNW6.4 kmh NNW 9.0 mph14.5 kmh 29.96 in1014.6 mb 0.00 in0.0 mm 0.00 in0.0 mm 0.43 in10.9 mm
05:56 PM 61.5°F16.4°C 53.2°F11.8°C 74% 4.0 mph SW6.4 kmh SW 8.0 mph12.9 kmh 29.95 in1014.2 mb 0.00 in0.0 mm 0.00 in0.0 mm 0.43 in10.9 mm
06:03 PM 61.5°F16.4°C 53.2°F11.8°C 74% 4.0 mph WSW6.4 kmh WSW 12.0 mph19.3 kmh 29.96 in1014.6 mb 0.00 in0.0 mm 0.00 in0.0 mm 0.43 in10.9 mm
06:10 PM 61.5°F16.4°C 53.2°F11.8°C 74% 4.0 mph SW6.4 kmh SW 12.0 mph19.3 kmh 29.96 in1014.6 mb 0.00 in0.0 mm 0.00 in0.0 mm 0.43 in10.9 mm
06:17 PM 61.5°F16.4°C 53.6°F12.0°C 75% 4.0 mph SW6.4 kmh SW 8.0 mph12.9 kmh 29.96 in1014.6 mb 0.00 in0.0 mm 0.00 in0.0 mm 0.43 in10.9 mm
06:24 PM 61.7°F16.5°C 53.2°F11.8°C 74% 4.0 mph SW6.4 kmh SW 7.0 mph11.3 kmh 29.95 in1014.2 mb 0.00 in0.0 mm 0.00 in0.0 mm 0.43 in10.9 mm
06:31 PM 61.7°F16.5°C 53.2°F11.8°C 74% 4.0 mph SW6.4 kmh SW 7.0 mph11.3 kmh 29.95 in1014.2 mb 0.00 in0.0 mm 0.00 in0.0 mm 0.43 in10.9 mm
06:38 PM 61.5°F16.4°C 53.1°F11.7°C 74% 4.0 mph SW6.4 kmh SW 7.0 mph11.3 kmh 29.96 in1014.6 mb 0.00 in0.0 mm 0.00 in0.0 mm 0.43 in10.9 mm
06:45 PM 61.3°F16.3°C 52.9°F11.6°C 74% 3.0 mph SW4.8 kmh SW 7.0 mph11.3 kmh 29.96 in1014.6 mb 0.00 in0.0 mm 0.00 in0.0 mm 0.43 in10.9 mm
06:52 PM 61.2°F16.2°C 53.2°F11.8°C 75% 3.0 mph NNW4.8 kmh NNW 5.0 mph8.0 kmh 29.96 in1014.6 mb 0.00 in0.0 mm 0.00 in0.0 mm 0.43 in10.9 mm
06:59 PM 61.2°F16.2°C 53.2°F11.8°C 75% 3.0 mph N4.8 kmh N 8.0 mph12.9 kmh 29.96 in1014.6 mb 0.00 in0.0 mm 0.00 in0.0 mm 0.43 in10.9 mm
07:06 PM 61.2°F16.2°C 53.2°F11.8°C 75% 3.0 mph N4.8 kmh N 7.0 mph11.3 kmh 29.97 in1014.9 mb 0.00 in0.0 mm 0.00 in0.0 mm 0.43 in10.9 mm
07:13 PM 61.2°F16.2°C 53.2°F11.8°C 75% 4.0 mph N6.4 kmh N 8.0 mph12.9 kmh 29.97 in1014.9 mb 0.00 in0.0 mm 0.00 in0.0 mm 0.43 in10.9 mm
07:20 PM 61.2°F16.2°C 53.2°F11.8°C 75% 4.0 mph N6.4 kmh N 8.0 mph12.9 kmh 29.97 in1014.9 mb 0.00 in0.0 mm 0.00 in0.0 mm 0.43 in10.9 mm
07:27 PM 61.2°F16.2°C 53.1°F11.7°C 75% 4.0 mph N6.4 kmh N 9.0 mph14.5 kmh 29.98 in1015.2 mb 0.00 in0.0 mm 0.00 in0.0 mm 0.43 in10.9 mm
07:34 PM 61.2°F16.2°C 53.1°F11.7°C 75% 3.0 mph N4.8 kmh N 5.0 mph8.0 kmh 29.98 in1015.2 mb 0.00 in0.0 mm 0.00 in0.0 mm 0.43 in10.9 mm
07:41 PM 61.2°F16.2°C 53.1°F11.7°C 75% 3.0 mph W4.8 kmh W 8.0 mph12.9 kmh 29.99 in1015.6 mb 0.00 in0.0 mm 0.00 in0.0 mm 0.43 in10.9 mm
07:48 PM 61.0°F16.1°C 53.1°F11.7°C 75% 4.0 mph W6.4 kmh W 8.0 mph12.9 kmh 29.99 in1015.6 mb 0.00 in0.0 mm 0.00 in0.0 mm 0.43 in10.9 mm
07:55 PM 61.2°F16.2°C 53.1°F11.7°C 75% 4.0 mph N6.4 kmh N 8.0 mph12.9 kmh 30.00 in1015.9 mb 0.00 in0.0 mm 0.00 in0.0 mm 0.43 in10.9 mm
08:02 PM 60.1°F15.6°C 51.8°F11.0°C 74% 4.0 mph N6.4 kmh N 9.0 mph14.5 kmh 30.01 in1016.3 mb 0.00 in0.0 mm 0.00 in0.0 mm 0.43 in10.9 mm
08:09 PM 57.7°F14.3°C 49.6°F9.8°C 74% 3.0 mph N4.8 kmh N 9.0 mph14.5 kmh 30.02 in1016.6 mb 0.00 in0.0 mm 0.00 in0.0 mm 0.43 in10.9 mm
08:16 PM 55.9°F13.3°C 47.7°F8.7°C 74% 3.0 mph N4.8 kmh N 9.0 mph14.5 kmh 30.02 in1016.6 mb 0.00 in0.0 mm 0.00 in0.0 mm 0.43 in10.9 mm
08:23 PM 54.7°F12.6°C 46.8°F8.2°C 75% 3.0 mph N4.8 kmh N 12.0 mph19.3 kmh 30.02 in1016.6 mb 0.00 in0.0 mm 0.00 in0.0 mm 0.43 in10.9 mm
08:30 PM 53.8°F12.1°C 46.4°F8.0°C 76% 4.0 mph N6.4 kmh N 12.0 mph19.3 kmh 30.03 in1016.9 mb 0.00 in0.0 mm 0.00 in0.0 mm 0.43 in10.9 mm
08:37 PM 53.1°F11.7°C 45.7°F7.6°C 76% 3.0 mph N4.8 kmh N 7.0 mph11.3 kmh 30.03 in1016.9 mb 0.00 in0.0 mm 0.00 in0.0 mm 0.43 in10.9 mm
08:44 PM 52.3°F11.3°C 45.0°F7.2°C 76% 3.0 mph N4.8 kmh N 7.0 mph11.3 kmh 30.04 in1017.3 mb 0.00 in0.0 mm 0.00 in0.0 mm 0.43 in10.9 mm
08:51 PM 51.6°F10.9°C 44.2°F6.8°C 76% 3.0 mph N4.8 kmh N 5.0 mph8.0 kmh 30.04 in1017.3 mb 0.00 in0.0 mm 0.00 in0.0 mm 0.43 in10.9 mm
08:58 PM 51.3°F10.7°C 44.4°F6.9°C 77% 1.0 mph N1.6 kmh N 5.0 mph8.0 kmh 30.04 in1017.3 mb 0.00 in0.0 mm 0.00 in0.0 mm 0.43 in10.9 mm
09:05 PM 51.1°F10.6°C 44.1°F6.7°C 77% 1.0 mph N1.6 kmh N 5.0 mph8.0 kmh 30.04 in1017.3 mb 0.00 in0.0 mm 0.00 in0.0 mm 0.43 in10.9 mm
09:12 PM 50.5°F10.3°C 43.7°F6.5°C 77% 3.0 mph N4.8 kmh N 7.0 mph11.3 kmh 30.04 in1017.3 mb 0.00 in0.0 mm 0.00 in0.0 mm 0.43 in10.9 mm
09:19 PM 50.4°F10.2°C 43.5°F6.4°C 77% 3.0 mph N4.8 kmh N 7.0 mph11.3 kmh 30.04 in1017.3 mb 0.00 in0.0 mm 0.00 in0.0 mm 0.43 in10.9 mm
09:26 PM 50.2°F10.1°C 43.3°F6.3°C 77% 1.0 mph N1.6 kmh N 4.0 mph6.4 kmh 30.04 in1017.3 mb 0.00 in0.0 mm 0.00 in0.0 mm 0.43 in10.9 mm
09:33 PM 49.8°F9.9°C 42.8°F6.0°C 77% 1.0 mph N1.6 kmh N 8.0 mph12.9 kmh 30.04 in1017.3 mb 0.00 in0.0 mm 0.00 in0.0 mm 0.43 in10.9 mm
09:40 PM 49.6°F9.8°C 42.6°F5.9°C 77% 1.0 mph N1.6 kmh N 8.0 mph12.9 kmh 30.05 in1017.6 mb 0.00 in0.0 mm 0.00 in0.0 mm 0.43 in10.9 mm
09:47 PM 49.5°F9.7°C 42.6°F5.9°C 77% 1.0 mph N1.6 kmh N 8.0 mph12.9 kmh 30.05 in1017.6 mb 0.00 in0.0 mm 0.00 in0.0 mm 0.43 in10.9 mm
09:54 PM 49.3°F9.6°C 42.3°F5.7°C 77% 1.0 mph N1.6 kmh N 5.0 mph8.0 kmh 30.06 in1017.9 mb 0.00 in0.0 mm 0.00 in0.0 mm 0.43 in10.9 mm
10:01 PM 49.3°F9.6°C 42.3°F5.7°C 77% 3.0 mph N4.8 kmh N 5.0 mph8.0 kmh 30.05 in1017.6 mb 0.00 in0.0 mm 0.00 in0.0 mm 0.43 in10.9 mm
10:08 PM 49.1°F9.5°C 42.3°F5.7°C 77% 3.0 mph N4.8 kmh N 5.0 mph8.0 kmh 30.05 in1017.6 mb 0.00 in0.0 mm 0.00 in0.0 mm 0.43 in10.9 mm
10:15 PM 48.9°F9.4°C 42.1°F5.6°C 77% 1.0 mph N1.6 kmh N 7.0 mph11.3 kmh 30.05 in1017.6 mb 0.00 in0.0 mm 0.00 in0.0 mm 0.43 in10.9 mm
10:22 PM 48.9°F9.4°C 42.1°F5.6°C 77% 1.0 mph N1.6 kmh N 7.0 mph11.3 kmh 30.06 in1017.9 mb 0.00 in0.0 mm 0.00 in0.0 mm 0.43 in10.9 mm
10:29 PM 49.1°F9.5°C 42.3°F5.7°C 77% 1.0 mph N1.6 kmh N 3.0 mph4.8 kmh 30.06 in1017.9 mb 0.00 in0.0 mm 0.00 in0.0 mm 0.43 in10.9 mm
10:36 PM 49.1°F9.5°C 42.3°F5.7°C 77% Calm Calm 3.0 mph4.8 kmh 30.06 in1017.9 mb 0.00 in0.0 mm 0.00 in0.0 mm 0.43 in10.9 mm
10:43 PM 48.9°F9.4°C 42.1°F5.6°C 77% Calm Calm 1.0 mph1.6 kmh 30.05 in1017.6 mb 0.00 in0.0 mm 0.00 in0.0 mm 0.43 in10.9 mm
10:50 PM 48.9°F9.4°C 42.1°F5.6°C 77% Calm Calm 4.0 mph6.4 kmh 30.05 in1017.6 mb 0.00 in0.0 mm 0.00 in0.0 mm 0.43 in10.9 mm
10:57 PM 48.7°F9.3°C 41.9°F5.5°C 77% 1.0 mph N1.6 kmh N 4.0 mph6.4 kmh 30.06 in1017.9 mb 0.00 in0.0 mm 0.00 in0.0 mm 0.43 in10.9 mm
11:04 PM 48.7°F9.3°C 41.9°F5.5°C 77% Calm Calm 3.0 mph4.8 kmh 30.06 in1017.9 mb 0.00 in0.0 mm 0.00 in0.0 mm 0.27 in6.9 mm
11:11 PM 48.7°F9.3°C 41.5°F5.3°C 76% 1.0 mph N1.6 kmh N 4.0 mph6.4 kmh 30.06 in1017.9 mb 0.00 in0.0 mm 0.00 in0.0 mm 0.27 in6.9 mm
11:18 PM 48.7°F9.3°C 41.9°F5.5°C 77% 1.0 mph N1.6 kmh N 4.0 mph6.4 kmh 30.07 in1018.3 mb 0.00 in0.0 mm 0.00 in0.0 mm 0.27 in6.9 mm
11:25 PM 48.6°F9.2°C 41.4°F5.2°C 76% 1.0 mph N1.6 kmh N 4.0 mph6.4 kmh 30.06 in1017.9 mb 0.00 in0.0 mm 0.00 in0.0 mm 0.27 in6.9 mm
11:32 PM 48.2°F9.0°C 41.0°F5.0°C 76% 1.0 mph N1.6 kmh N 4.0 mph6.4 kmh 30.07 in1018.3 mb 0.00 in0.0 mm 0.00 in0.0 mm 0.27 in6.9 mm
11:39 PM 47.8°F8.8°C 40.6°F4.8°C 76% 1.0 mph N1.6 kmh N 5.0 mph8.0 kmh 30.07 in1018.3 mb 0.00 in0.0 mm 0.00 in0.0 mm 0.27 in6.9 mm
11:46 PM 47.8°F8.8°C 40.6°F4.8°C 76% 1.0 mph N1.6 kmh N 4.0 mph6.4 kmh 30.07 in1018.3 mb 0.00 in0.0 mm 0.00 in0.0 mm 0.27 in6.9 mm
11:53 PM 47.7°F8.7°C 40.5°F4.7°C 76% 1.0 mph N1.6 kmh N 4.0 mph6.4 kmh 30.07 in1018.3 mb 0.00 in0.0 mm 0.00 in0.0 mm 0.27 in6.9 mm